Time;durP1;ratioP1;P1;durP2;ratioP2;P2;SDS_P1;SDS_P2;PMS_P1;PMS_P2;Temp;Humidity;BMP_temperature;BMP_pressure;BME280_temperature;BME280_humidity;BME280_pressure;Samples;Min_cycle;Max_cycle;Signal;HPM_P1;HPM_P2
2022/08/31 00:04:55;;;;;;;;;;;;;;;24.80;59.57;100647.22;7404259;19;1356;-67
2022/08/31 00:07:23;;;;;;;;;;;;;;;24.96;59.50;100652.53;7405516;19;1612;-67
2022/08/31 00:09:52;;;;;;;;;;;;;;;24.88;59.45;100633.63;7404381;19;1745;-66
2022/08/31 00:12:23;;;;;;;;;;;;;;;24.81;59.55;100665.97;7404514;19;1545;-66
2022/08/31 00:14:51;;;;;;;;;;;;;;;24.86;59.59;100645.66;7403218;19;1540;-67
2022/08/31 00:17:20;;;;;;;;;;;;;;;24.89;59.44;100651.56;7407463;19;1553;-66
2022/08/31 00:19:48;;;;;;;;;;;;;;;24.87;59.53;100652.75;7410916;19;1641;-67
2022/08/31 00:22:17;;;;;;;;;;;;;;;24.79;59.45;100656.38;7410426;19;1859;-67
2022/08/31 00:24:45;;;;;;;;;;;;;;;24.76;59.81;100654.00;7412098;19;1543;-67
2022/08/31 00:27:14;;;;;;;;;;;;;;;24.81;59.60;100649.75;7408964;19;1445;-67
2022/08/31 00:29:45;;;;;;;;;;;;;;;24.76;59.87;100654.84;7412690;19;1541;-67
2022/08/31 00:32:13;;;;;;;;;;;;;;;24.69;59.94;100644.88;7412479;19;1625;-67
2022/08/31 00:34:41;;;;;;;;;;;;;;;24.79;59.65;100667.19;7411529;19;1468;-67
2022/08/31 00:37:10;;;;;;;;;;;;;;;24.84;59.55;100656.66;7411872;19;1577;-66
2022/08/31 00:39:38;;;;;;;;;;;;;;;24.84;59.47;100655.81;7412030;19;1571;-66
2022/08/31 00:42:07;;;;;;;;;;;;;;;24.90;59.54;100652.41;7411221;19;1850;-66
2022/08/31 00:44:36;;;;;;;;;;;;;;;24.85;59.60;100655.66;7411666;19;1571;-67
2022/08/31 00:47:07;;;;;;;;;;;;;;;24.83;59.43;100657.69;7411932;19;1735;-67
2022/08/31 00:49:37;;;;;;;;;;;;;;;24.84;59.49;100659.34;7411278;19;1330;-67
2022/08/31 00:52:08;;;;;;;;;;;;;;;24.76;59.83;100651.28;7411677;19;1552;-67
2022/08/31 00:54:39;;;;;;;;;;;;;;;24.85;59.62;100661.06;7410919;19;1502;-67
2022/08/31 00:57:08;;;;;;;;;;;;;;;24.86;59.57;100670.84;7411080;19;1605;-67
2022/08/31 00:59:37;;;;;;;;;;;;;;;24.74;59.71;100664.16;7411650;19;1546;-67
2022/08/31 01:02:08;;;;;;;;;;;;;;;24.65;60.03;100668.75;7408614;19;1859;-67
2022/08/31 01:04:37;;;;;;;;;;;;;;;24.57;60.12;100663.34;7410690;19;1533;-67
2022/08/31 01:07:06;;;;;;;;;;;;;;;24.69;59.82;100678.22;7411581;19;1637;-66
2022/08/31 01:09:36;;;;;;;;;;;;;;;24.75;59.72;100672.09;7410563;19;1603;-66
2022/08/31 01:12:06;;;;;;;;;;;;;;;24.79;59.57;100664.47;7409517;19;1543;-67
2022/08/31 01:14:34;;;;;;;;;;;;;;;24.59;59.97;100672.13;7410656;19;1653;-66
2022/08/31 01:17:03;;;;;;;;;;;;;;;24.55;60.00;100682.47;7411237;19;1605;-67
2022/08/31 01:19:34;;;;;;;;;;;;;;;24.51;60.32;100680.28;7410072;19;1543;-66
2022/08/31 01:22:06;;;;;;;;;;;;;;;24.70;59.84;100689.84;7407985;19;1851;-67
2022/08/31 01:24:38;;;;;;;;;;;;;;;24.65;59.95;100700.34;7407336;19;1656;-67
2022/08/31 01:27:07;;;;;;;;;;;;;;;24.56;60.01;100689.56;7409983;19;1648;-66
2022/08/31 01:29:36;;;;;;;;;;;;;;;24.48;60.42;100684.16;7410915;19;1331;-67
2022/08/31 01:32:05;;;;;;;;;;;;;;;24.48;60.19;100686.03;7410369;19;1616;-67
2022/08/31 01:34:34;;;;;;;;;;;;;;;24.44;60.41;100693.63;7409265;19;1499;-66
2022/08/31 01:37:03;;;;;;;;;;;;;;;24.55;60.24;100681.63;7410340;19;1584;-67
2022/08/31 01:39:31;;;;;;;;;;;;;;;24.53;60.04;100687.22;7408696;19;1614;-67
2022/08/31 01:42:02;;;;;;;;;;;;;;;24.61;59.94;100698.00;7408078;19;1841;-60
2022/08/31 01:44:30;;;;;;;;;;;;;;;24.67;59.62;100698.31;7408410;19;1903;-60
2022/08/31 01:46:59;;;;;;;;;;;;;;;24.72;59.47;100695.94;7408811;19;1626;-60
2022/08/31 01:49:27;;;;;;;;;;;;;;;24.77;59.66;100707.91;7408576;19;1388;-60
2022/08/31 01:51:56;;;;;;;;;;;;;;;24.73;59.60;100689.50;7409480;19;1311;-60
2022/08/31 01:54:26;;;;;;;;;;;;;;;24.75;59.65;100709.09;7409101;19;1369;-60
2022/08/31 01:56:55;;;;;;;;;;;;;;;24.77;59.42;100707.91;7409040;19;1559;-60
2022/08/31 01:59:26;;;;;;;;;;;;;;;24.75;59.69;100703.69;7408897;19;1617;-60
2022/08/31 02:01:55;;;;;;;;;;;;;;;24.69;59.45;100709.78;7400991;19;1868;-60
2022/08/31 02:04:25;;;;;;;;;;;;;;;24.58;59.71;100709.16;7406510;19;1712;-60
2022/08/31 02:06:56;;;;;;;;;;;;;;;24.53;60.05;100716.09;7408024;19;1691;-60
2022/08/31 02:09:25;;;;;;;;;;;;;;;24.45;59.96;100702.56;7407345;19;1484;-60
2022/08/31 02:11:53;;;;;;;;;;;;;;;24.36;60.42;100696.34;7408261;19;1609;-60
2022/08/31 02:14:22;;;;;;;;;;;;;;;24.57;59.85;100691.25;7406483;19;1274;-60
2022/08/31 02:16:54;;;;;;;;;;;;;;;24.69;59.59;100701.66;7408476;19;1505;-60
2022/08/31 02:19:22;;;;;;;;;;;;;;;24.69;59.61;100704.38;7407071;19;1601;-60
2022/08/31 02:21:50;;;;;;;;;;;;;;;24.70;59.44;100719.59;7407073;19;1842;-60
2022/08/31 02:24:19;;;;;;;;;;;;;;;24.63;59.66;100705.06;7407977;19;1550;-60
2022/08/31 02:26:47;;;;;;;;;;;;;;;24.60;59.53;100717.94;7406304;19;1412;-60
2022/08/31 02:29:16;;;;;;;;;;;;;;;24.54;59.84;100710.53;7407293;19;1512;-60
2022/08/31 02:31:45;;;;;;;;;;;;;;;24.41;59.77;100704.78;7407785;19;1341;-60
2022/08/31 02:34:16;;;;;;;;;;;;;;;24.43;60.10;100727.06;7407076;19;1625;-60
2022/08/31 02:36:45;;;;;;;;;;;;;;;24.41;60.11;100718.28;7406324;19;1414;-60
2022/08/31 02:39:13;;;;;;;;;;;;;;;24.40;60.00;100730.13;7406322;19;1580;-60
2022/08/31 02:41:42;;;;;;;;;;;;;;;24.51;59.72;100721.69;7406958;19;1853;-60
2022/08/31 02:44:11;;;;;;;;;;;;;;;24.53;59.59;100726.91;7407530;19;1636;-60
2022/08/31 02:46:39;;;;;;;;;;;;;;;24.57;59.22;100712.03;7406583;19;1437;-60
2022/08/31 02:49:08;;;;;;;;;;;;;;;24.58;59.39;100725.38;7406706;19;1509;-60
2022/08/31 02:51:40;;;;;;;;;;;;;;;24.58;59.68;100722.66;7405999;19;1348;-60
2022/08/31 02:54:09;;;;;;;;;;;;;;;24.48;59.87;100724.69;7406758;19;1537;-60
2022/08/31 02:56:38;;;;;;;;;;;;;;;24.45;59.64;100741.25;7407280;19;1544;-60
2022/08/31 02:59:07;;;;;;;;;;;;;;;24.38;60.06;100742.97;7406878;19;1510;-60
2022/08/31 03:01:36;;;;;;;;;;;;;;;24.43;59.71;100724.34;7405620;19;1618;-60
2022/08/31 03:04:05;;;;;;;;;;;;;;;24.37;59.73;100719.66;7405421;19;1723;-60
2022/08/31 03:06:33;;;;;;;;;;;;;;;24.36;59.85;100721.50;7406186;19;1548;-60
2022/08/31 03:09:05;;;;;;;;;;;;;;;24.30;59.75;100734.88;7403362;19;1618;-60
2022/08/31 03:11:33;;;;;;;;;;;;;;;24.21;60.00;100723.22;7403115;19;1344;-60
2022/08/31 03:14:01;;;;;;;;;;;;;;;24.12;59.73;100733.19;7403719;19;1418;-60
2022/08/31 03:16:29;;;;;;;;;;;;;;;24.21;59.60;100732.19;7404499;19;1348;-60
2022/08/31 03:18:58;;;;;;;;;;;;;;;24.30;59.27;100729.47;7405787;19;1311;-60
2022/08/31 03:21:26;;;;;;;;;;;;;;;24.42;59.17;100730.78;7405795;19;1635;-60
2022/08/31 03:23:54;;;;;;;;;;;;;;;24.40;59.56;100727.41;7402495;19;1853;-60
2022/08/31 03:26:26;;;;;;;;;;;;;;;24.37;59.24;100722.34;7390719;19;1726;-60
2022/08/31 03:28:55;;;;;;;;;;;;;;;24.33;59.64;100721.00;7399014;19;1637;-60
2022/08/31 03:31:23;;;;;;;;;;;;;;;24.17;59.83;100720.03;7400641;19;1634;-60
2022/08/31 03:33:51;;;;;;;;;;;;;;;24.18;59.71;100721.72;7402720;19;1386;-60
2022/08/31 03:36:20;;;;;;;;;;;;;;;24.11;59.63;100709.06;7403029;19;1748;-60
2022/08/31 03:38:48;;;;;;;;;;;;;;;24.11;59.51;100717.16;7403585;19;1657;-60
2022/08/31 03:41:18;;;;;;;;;;;;;;;24.08;59.75;100712.94;7401905;19;1319;-60
2022/08/31 03:43:48;;;;;;;;;;;;;;;24.15;59.31;100718.50;7400963;19;1858;-60
2022/08/31 03:46:17;;;;;;;;;;;;;;;24.15;59.47;100719.38;7405059;19;1546;-60
2022/08/31 03:48:46;;;;;;;;;;;;;;;24.17;58.94;100730.84;7404744;19;1616;-60
2022/08/31 03:51:15;;;;;;;;;;;;;;;24.20;58.82;100733.19;7402144;19;1571;-60
2022/08/31 03:53:43;;;;;;;;;;;;;;;24.24;58.70;100724.75;7405143;19;1620;-60
2022/08/31 03:56:12;;;;;;;;;;;;;;;24.18;58.51;100724.41;7404832;19;1575;-60
2022/08/31 03:58:40;;;;;;;;;;;;;;;24.20;58.89;100738.59;7404770;19;1542;-60
2022/08/31 04:01:12;;;;;;;;;;;;;;;24.15;59.97;100734.72;7404196;19;1458;-60
2022/08/31 04:03:41;;;;;;;;;;;;;;;23.91;60.12;100759.88;7402772;19;1851;-60
2022/08/31 04:06:11;;;;;;;;;;;;;;;24.03;59.33;100742.31;7403177;19;1353;-60
2022/08/31 04:08:40;;;;;;;;;;;;;;;24.06;59.17;100736.59;7405645;19;1056;-60
2022/08/31 04:11:10;;;;;;;;;;;;;;;24.14;59.35;100741.16;7403990;19;1679;-60
2022/08/31 04:13:38;;;;;;;;;;;;;;;24.11;59.26;100720.69;7404413;19;1630;-60
2022/08/31 04:16:11;;;;;;;;;;;;;;;24.15;59.36;100727.47;7403738;19;1231;-60
2022/08/31 04:18:43;;;;;;;;;;;;;;;24.22;58.78;100723.06;7402758;19;1739;-60
2022/08/31 04:21:15;;;;;;;;;;;;;;;24.26;58.93;100738.94;7403628;19;1689;-60
2022/08/31 04:23:44;;;;;;;;;;;;;;;24.34;58.62;100747.03;7401203;19;1841;-60
2022/08/31 04:26:17;;;;;;;;;;;;;;;24.30;58.83;100734.88;7403740;19;1535;-60
2022/08/31 04:28:45;;;;;;;;;;;;;;;24.37;58.87;100736.72;7401271;19;1417;-60
2022/08/31 04:31:13;;;;;;;;;;;;;;;24.38;59.16;100734.84;7404435;19;1542;-60
2022/08/31 04:33:45;;;;;;;;;;;;;;;24.26;59.78;100728.13;7404207;19;1642;-60
2022/08/31 04:36:14;;;;;;;;;;;;;;;24.05;59.77;100734.88;7403129;19;1688;-59
2022/08/31 04:38:44;;;;;;;;;;;;;;;23.83;60.37;100747.22;7404004;19;1670;-60
2022/08/31 04:41:13;;;;;;;;;;;;;;;23.96;60.40;100749.44;7403087;19;1535;-60
2022/08/31 04:43:44;;;;;;;;;;;;;;;24.19;59.44;100741.47;7401518;19;1857;-60
2022/08/31 04:46:13;;;;;;;;;;;;;;;24.22;59.55;100728.47;7403834;19;1401;-59
2022/08/31 04:48:42;;;;;;;;;;;;;;;24.21;59.83;100728.63;7400702;19;1680;-60
2022/08/31 04:51:14;;;;;;;;;;;;;;;24.10;59.97;100721.72;7402475;19;1757;-59
2022/08/31 04:53:43;;;;;;;;;;;;;;;24.19;59.42;100720.72;7403088;19;1795;-60
2022/08/31 04:56:13;;;;;;;;;;;;;;;24.37;59.17;100733.16;7402745;19;1410;-60
2022/08/31 04:58:41;;;;;;;;;;;;;;;24.23;59.21;100718.47;7403397;19;1506;-61
2022/08/31 05:01:10;;;;;;;;;;;;;;;24.29;59.33;100714.25;7401875;19;1625;-60
2022/08/31 05:03:39;;;;;;;;;;;;;;;24.41;59.26;100718.28;7406185;19;1850;-60
2022/08/31 05:06:08;;;;;;;;;;;;;;;24.61;59.25;100718.75;7409218;19;1657;-61
2022/08/31 05:08:39;;;;;;;;;;;;;;;24.64;59.00;100721.13;7410119;19;1500;-59
2022/08/31 05:11:10;;;;;;;;;;;;;;;24.60;59.47;100712.53;7408588;19;1547;-60
2022/08/31 05:13:38;;;;;;;;;;;;;;;24.58;59.79;100736.19;7409816;19;1390;-60
2022/08/31 05:16:08;;;;;;;;;;;;;;;24.56;59.47;100726.56;7408690;19;1578;-60
2022/08/31 05:18:37;;;;;;;;;;;;;;;24.57;59.53;100730.94;7407213;19;1775;-60
2022/08/31 05:21:10;;;;;;;;;;;;;;;24.68;59.50;100724.34;7407393;19;1339;-62
2022/08/31 05:23:41;;;;;;;;;;;;;;;24.61;59.54;100730.44;7406728;19;1864;-61
2022/08/31 05:26:10;;;;;;;;;;;;;;;24.70;59.88;100728.53;7409201;19;1496;-62
2022/08/31 05:28:38;;;;;;;;;;;;;;;24.85;59.73;100720.56;7408654;19;1641;-61
2022/08/31 05:31:07;;;;;;;;;;;;;;;24.94;59.78;100741.13;7410565;19;1612;-68
2022/08/31 05:33:36;;;;;;;;;;;;;;;24.95;59.66;100723.91;7410512;19;1677;-68
2022/08/31 05:36:04;;;;;;;;;;;;;;;25.01;59.58;100731.31;7406439;19;1863;-68
2022/08/31 05:38:33;;;;;;;;;;;;;;;24.98;59.52;100717.28;7408882;19;1630;-68
2022/08/31 05:41:05;;;;;;;;;;;;;;;25.02;59.51;100722.16;7407066;19;1625;-67
2022/08/31 05:43:33;;;;;;;;;;;;;;;25.06;59.39;100721.81;7405723;19;1885;-67
2022/08/31 05:46:02;;;;;;;;;;;;;;;25.07;59.61;100720.78;7408058;19;1559;-66
2022/08/31 05:48:32;;;;;;;;;;;;;;;25.09;59.51;100729.56;7406567;19;1541;-61
2022/08/31 05:51:02;;;;;;;;;;;;;;;25.06;59.46;100714.53;7408311;19;1609;-61
2022/08/31 05:53:30;;;;;;;;;;;;;;;25.12;59.70;100723.81;7407002;19;1680;-61
2022/08/31 05:56:09;;;;;;;;;;;;;;;25.14;59.64;100724.47;7406318;19;1504;-61
2022/08/31 05:58:38;;;;;;;;;;;;;;;25.14;59.64;100719.06;7404708;19;1716;-61
2022/08/31 06:01:07;;;;;;;;;;;;;;;25.17;59.47;100724.13;7404507;19;1681;-62
2022/08/31 06:03:35;;;;;;;;;;;;;;;25.16;59.55;100727.84;7405681;19;1856;-61
2022/08/31 06:06:04;;;;;;;;;;;;;;;25.17;59.63;100721.44;7408043;19;1543;-62
2022/08/31 06:08:34;;;;;;;;;;;;;;;25.19;59.74;100730.22;7406575;19;1380;-61
2022/08/31 06:11:05;;;;;;;;;;;;;;;25.19;59.40;100738.34;7407952;19;1495;-61
2022/08/31 06:13:34;;;;;;;;;;;;;;;25.18;59.82;100728.50;7404003;19;1613;-61
2022/08/31 06:16:03;;;;;;;;;;;;;;;25.24;59.74;100727.81;7407516;19;1597;-61
2022/08/31 06:18:31;;;;;;;;;;;;;;;25.22;59.67;100724.47;7407752;19;1689;-61
2022/08/31 06:21:06;;;;;;;;;;;;;;;25.24;59.69;100724.28;7406394;19;1541;-67
2022/08/31 06:23:34;;;;;;;;;;;;;;;25.25;59.56;100739.50;7407084;19;1842;-67
2022/08/31 06:26:07;;;;;;;;;;;;;;;25.30;59.92;100747.94;7406093;19;1174;-61
2022/08/31 06:28:35;;;;;;;;;;;;;;;25.25;59.74;100732.22;7404694;19;1372;-61
2022/08/31 06:31:11;;;;;;;;;;;;;;;25.29;59.73;100748.97;7404647;19;1398;-61
2022/08/31 06:33:42;;;;;;;;;;;;;;;25.27;59.90;100743.72;7402896;19;1693;-68
2022/08/31 06:36:11;;;;;;;;;;;;;;;25.34;60.02;100752.81;7400892;19;1483;-61
2022/08/31 06:38:40;;;;;;;;;;;;;;;25.30;59.81;100756.06;7403802;19;1325;-62
2022/08/31 06:41:19;;;;;;;;;;;;;;;25.32;59.98;100760.25;7406565;19;1391;-62
2022/08/31 06:43:47;;;;;;;;;;;;;;;25.36;59.85;100761.59;7405447;19;1861;-61
2022/08/31 06:46:16;;;;;;;;;;;;;;;25.32;59.96;100754.84;7407005;19;1375;-61
2022/08/31 06:48:45;;;;;;;;;;;;;;;25.35;59.91;100753.66;7405285;19;1729;-61
2022/08/31 06:51:14;;;;;;;;;;;;;;;25.33;60.08;100756.53;7406947;19;1496;-67
2022/08/31 06:53:44;;;;;;;;;;;;;;;25.32;60.17;100749.44;7403870;19;1325;-67
2022/08/31 06:56:13;;;;;;;;;;;;;;;25.36;60.25;100745.34;7403877;19;1794;-67
2022/08/31 06:58:44;;;;;;;;;;;;;;;25.35;60.07;100756.38;7405383;19;1318;-66
2022/08/31 07:01:14;;;;;;;;;;;;;;;25.35;60.26;100756.38;7403997;19;1498;-61
2022/08/31 07:03:43;;;;;;;;;;;;;;;25.36;59.97;100760.75;7402579;19;1854;-67
2022/08/31 07:06:14;;;;;;;;;;;;;;;25.37;60.12;100755.16;7403812;19;1504;-67
2022/08/31 07:08:43;;;;;;;;;;;;;;;25.35;60.13;100759.09;7406927;19;1617;-67
2022/08/31 07:11:15;;;;;;;;;;;;;;;25.35;60.29;100754.50;7405715;19;1778;-67
2022/08/31 07:13:46;;;;;;;;;;;;;;;25.35;60.46;100753.66;7407161;19;1617;-67
2022/08/31 07:16:16;;;;;;;;;;;;;;;25.39;60.34;100741.47;7402992;19;1555;-66
2022/08/31 07:18:45;;;;;;;;;;;;;;;25.39;60.20;100747.72;7402455;19;1531;-61
2022/08/31 07:21:16;;;;;;;;;;;;;;;25.39;60.57;100758.53;7404968;19;1514;-61
2022/08/31 07:23:45;;;;;;;;;;;;;;;25.38;60.27;100743.31;7402919;19;1891;-61
2022/08/31 07:26:15;;;;;;;;;;;;;;;25.43;60.44;100745.50;7404791;19;1566;-61
2022/08/31 07:28:44;;;;;;;;;;;;;;;25.43;60.30;100771.69;7404753;19;1350;-61
2022/08/31 07:31:16;;;;;;;;;;;;;;;25.44;60.23;100760.69;7405807;19;1178;-61
2022/08/31 07:33:44;;;;;;;;;;;;;;;25.42;60.41;100748.38;7403685;19;1666;-61
2022/08/31 07:36:15;;;;;;;;;;;;;;;25.44;60.70;100749.03;7402816;19;1766;-61
2022/08/31 07:44:20;;;;;;;;;;;;;;;25.38;60.76;100735.19;7405630;19;1851;-60
2022/08/31 07:46:54;;;;;;;;;;;;;;;25.44;60.65;100757.16;7405347;19;1756;-66
2022/08/31 07:49:25;;;;;;;;;;;;;;;25.43;60.71;100744.63;7406846;19;1613;-67
2022/08/31 07:51:54;;;;;;;;;;;;;;;25.44;60.73;100730.09;7404886;19;1777;-61
2022/08/31 07:54:26;;;;;;;;;;;;;;;25.44;60.77;100738.22;7404923;19;1620;-61
2022/08/31 07:57:03;;;;;;;;;;;;;;;25.49;60.33;100747.47;7405828;19;1542;-67
2022/08/31 07:59:32;;;;;;;;;;;;;;;24.58;61.45;100749.69;7405874;19;1662;-66
2022/08/31 08:02:03;;;;;;;;;;;;;;;23.67;61.95;100753.41;7405081;19;1363;-66
2022/08/31 08:04:33;;;;;;;;;;;;;;;23.25;61.75;100748.94;7404005;19;1853;-61
2022/08/31 08:07:04;;;;;;;;;;;;;;;22.99;60.95;100744.44;7404885;19;1636;-60
2022/08/31 08:09:33;;;;;;;;;;;;;;;23.00;60.53;100735.34;7404552;19;1549;-61
2022/08/31 08:12:05;;;;;;;;;;;;;;;22.93;60.10;100747.78;7406912;19;1626;-73
2022/08/31 08:14:34;;;;;;;;;;;;;;;22.94;60.08;100745.91;7405791;19;1610;-61
2022/08/31 08:17:07;;;;;;;;;;;;;;;22.86;60.28;100733.28;7405331;19;1551;-61
2022/08/31 08:19:35;;;;;;;;;;;;;;;22.84;60.47;100744.22;7405155;19;1530;-61
2022/08/31 08:22:04;;;;;;;;;;;;;;;22.87;60.32;100726.84;7404661;19;1552;-75
2022/08/31 08:24:33;;;;;;;;;;;;;;;22.86;60.86;100743.19;7401332;19;1846;-61
2022/08/31 08:27:01;;;;;;;;;;;;;;;22.89;60.77;100724.84;7404765;19;1772;-61
2022/08/31 08:29:29;;;;;;;;;;;;;;;22.86;61.21;100744.06;7405351;19;1518;-61
2022/08/31 08:31:58;;;;;;;;;;;;;;;22.85;61.35;100736.97;7405070;19;1696;-73
2022/08/31 08:34:29;;;;;;;;;;;;;;;22.90;61.29;100731.94;7406113;19;1692;-67
2022/08/31 08:36:57;;;;;;;;;;;;;;;22.92;61.39;100727.22;7404987;19;1551;-61
2022/08/31 08:39:26;;;;;;;;;;;;;;;22.84;61.52;100719.94;7412091;19;1602;-61
2022/08/31 08:41:56;;;;;;;;;;;;;;;22.86;61.69;100727.88;7409545;19;1529;-61
2022/08/31 08:44:25;;;;;;;;;;;;;;;22.82;62.02;100719.25;7409113;19;1862;-61
2022/08/31 08:46:55;;;;;;;;;;;;;;;23.11;61.74;100714.50;7411675;19;1760;-72
2022/08/31 08:49:26;;;;;;;;;;;;;;;23.88;59.51;100723.25;7412150;19;1555;-62
2022/08/31 08:51:58;;;;;;;;;;;;;;;24.38;58.83;100703.25;7413206;19;1589;-73
2022/08/31 08:54:34;;;;;;;;;;;;;;;24.60;58.37;100711.69;7411521;19;1721;-73
2022/08/31 08:57:05;;;;;;;;;;;;;;;24.77;58.28;100702.50;7411453;19;1350;-62
2022/08/31 08:59:33;;;;;;;;;;;;;;;24.87;58.50;100696.03;7411129;19;1555;-66
2022/08/31 09:02:05;;;;;;;;;;;;;;;24.95;58.29;100688.72;7408915;19;1454;-71
2022/08/31 09:04:42;;;;;;;;;;;;;;;25.00;58.09;100685.47;7409869;19;1877;-62
2022/08/31 09:07:22;;;;;;;;;;;;;;;25.07;58.16;100689.19;7407610;19;1730;-70
2022/08/31 09:09:58;;;;;;;;;;;;;;;25.06;58.37;100686.63;7405035;19;1392;-70
2022/08/31 09:12:34;;;;;;;;;;;;;;;25.10;58.51;100696.09;7408416;19;1409;-60
2022/08/31 09:15:14;;;;;;;;;;;;;;;25.12;58.48;100694.88;7407656;19;1281;-59
2022/08/31 09:17:46;;;;;;;;;;;;;;;24.36;61.28;100682.84;7409653;19;1340;-77
2022/08/31 09:20:15;;;;;;;;;;;;;;;23.50;61.86;100695.03;7408765;19;1266;-76
2022/08/31 09:22:49;;;;;;;;;;;;;;;23.21;61.23;100705.25;7409311;19;1262;-77
2022/08/31 09:25:25;;;;;;;;;;;;;;;23.21;60.87;100699.84;7407591;19;1855;-58
2022/08/31 09:27:58;;;;;;;;;;;;;;;23.12;60.84;100683.81;7407226;19;1310;-70
2022/08/31 09:30:39;;;;;;;;;;;;;;;23.08;61.10;100687.84;7410798;19;1463;-70
2022/08/31 09:33:08;;;;;;;;;;;;;;;22.89;61.36;100686.25;7408840;19;1574;-70
2022/08/31 09:35:40;;;;;;;;;;;;;;;22.91;61.28;100682.38;7409837;19;1672;-70
2022/08/31 09:38:16;;;;;;;;;;;;;;;22.81;61.45;100692.44;7411086;19;1265;-70
2022/08/31 09:40:47;;;;;;;;;;;;;;;22.81;61.48;100692.44;7409146;19;1570;-70
2022/08/31 09:43:21;;;;;;;;;;;;;;;22.85;61.35;100699.22;7408851;19;1317;-58
2022/08/31 09:45:54;;;;;;;;;;;;;;;22.84;61.75;100671.41;7406305;19;1853;-58
2022/08/31 09:48:38;;;;;;;;;;;;;;;22.85;62.20;100680.34;7406638;19;1616;-59
2022/08/31 09:51:07;;;;;;;;;;;;;;;22.95;62.32;100685.59;7405380;19;1655;-70
2022/08/31 09:56:24;;;;;;;;;;;;;;;22.92;62.65;100681.38;7408542;19;1388;-70
2022/08/31 09:58:54;;;;;;;;;;;;;;;22.96;62.90;100680.03;7408322;19;1394;-70
2022/08/31 10:01:27;;;;;;;;;;;;;;;22.96;62.84;100677.34;7405477;19;1546;-69
2022/08/31 10:04:11;;;;;;;;;;;;;;;22.95;63.33;100672.13;7406302;19;1373;-71
2022/08/31 10:06:48;;;;;;;;;;;;;;;22.98;63.28;100672.63;7409159;19;1540;-70
2022/08/31 10:09:36;;;;;;;;;;;;;;;22.96;63.43;100671.97;7407974;19;1629;-70
2022/08/31 10:12:07;;;;;;;;;;;;;;;22.95;63.57;100670.25;7407899;19;1440;-70
2022/08/31 10:14:39;;;;;;;;;;;;;;;22.91;63.70;100652.72;7408215;19;1515;-59
2022/08/31 10:17:13;;;;;;;;;;;;;;;22.91;63.94;100660.81;7406056;19;1439;-58
2022/08/31 10:19:52;;;;;;;;;;;;;;;22.94;63.66;100655.09;7405734;19;1308;-58
2022/08/31 10:22:26;;;;;;;;;;;;;;;23.00;63.68;100669.78;7403750;19;1532;-58
2022/08/31 10:25:14;;;;;;;;;;;;;;;22.92;64.13;100657.13;7402354;19;1842;-58
2022/08/31 10:27:46;;;;;;;;;;;;;;;22.99;63.87;100633.03;7402647;19;1447;-59
2022/08/31 10:33:14;;;;;;;;;;;;;;;23.18;63.06;100632.75;7399755;19;1478;-58
2022/08/31 10:35:51;;;;;;;;;;;;;;;23.29;62.88;100609.16;7399688;19;1487;-58
2022/08/31 10:38:25;;;;;;;;;;;;;;;23.36;62.51;100620.97;7401872;19;1619;-58
2022/08/31 10:41:01;;;;;;;;;;;;;;;23.37;62.03;100607.28;7405333;19;1436;-69
2022/08/31 10:43:33;;;;;;;;;;;;;;;23.36;62.12;100611.03;7406121;19;1637;-58
2022/08/31 10:46:02;;;;;;;;;;;;;;;23.31;62.38;100610.66;7404566;19;1842;-70
2022/08/31 10:48:31;;;;;;;;;;;;;;;23.38;62.09;100614.38;7405844;19;1689;-59
2022/08/31 10:51:04;;;;;;;;;;;;;;;23.41;61.92;100610.50;7406554;19;1377;-59
2022/08/31 10:53:40;;;;;;;;;;;;;;;23.35;61.95;100590.44;7406924;19;1538;-59
2022/08/31 10:56:15;;;;;;;;;;;;;;;23.41;61.55;100597.84;7405970;19;1356;-59
2022/08/31 10:58:52;;;;;;;;;;;;;;;23.41;61.63;100589.75;7405418;19;1566;-59
2022/08/31 11:01:26;;;;;;;;;;;;;;;23.46;61.31;100599.19;7401455;19;1724;-59
2022/08/31 11:04:03;;;;;;;;;;;;;;;23.45;61.40;100592.97;7404311;19;1245;-59
2022/08/31 11:06:35;;;;;;;;;;;;;;;23.39;61.30;100589.06;7401460;19;1845;-59
2022/08/31 11:09:08;;;;;;;;;;;;;;;23.31;61.67;100570.19;7405323;19;1669;-70
2022/08/31 11:11:43;;;;;;;;;;;;;;;23.39;61.64;100572.06;7406791;19;1606;-70
2022/08/31 11:14:35;;;;;;;;;;;;;;;23.37;61.34;100572.22;7404024;19;1640;-59
2022/08/31 11:17:10;;;;;;;;;;;;;;;23.32;61.39;100554.88;7406134;19;1460;-70
2022/08/31 11:19:49;;;;;;;;;;;;;;;23.37;61.48;100568.69;7404764;19;1721;-59
2022/08/31 11:22:33;;;;;;;;;;;;;;;23.35;61.56;100560.75;7405176;19;1761;-59
2022/08/31 11:25:16;;;;;;;;;;;;;;;23.40;61.29;100547.59;7403857;19;1884;-59
2022/08/31 11:27:52;;;;;;;;;;;;;;;23.48;61.29;100562.13;7404578;19;1270;-58
2022/08/31 11:30:23;;;;;;;;;;;;;;;23.40;61.51;100546.78;7406149;19;1435;-69
2022/08/31 11:32:54;;;;;;;;;;;;;;;23.37;61.53;100539.00;7403953;19;1567;-69
2022/08/31 11:35:37;;;;;;;;;;;;;;;23.32;61.52;100547.63;7404744;19;1731;-59
2022/08/31 11:38:06;;;;;;;;;;;;;;;23.40;61.64;100531.41;7403722;19;1649;-70
2022/08/31 11:40:50;;;;;;;;;;;;;;;23.45;61.62;100540.84;7406451;19;1565;-76
2022/08/31 11:43:37;;;;;;;;;;;;;;;23.49;61.71;100534.09;7404601;19;1768;-70
2022/08/31 11:46:22;;;;;;;;;;;;;;;23.55;61.55;100538.81;7402002;19;1848;-60
2022/08/31 11:49:04;;;;;;;;;;;;;;;23.55;61.54;100538.81;7404358;19;1400;-70
2022/08/31 11:51:37;;;;;;;;;;;;;;;23.63;61.48;100525.28;7404706;19;1653;-59
2022/08/31 11:54:08;;;;;;;;;;;;;;;23.74;61.07;100524.09;7405315;19;1621;-72
2022/08/31 11:56:37;;;;;;;;;;;;;;;23.74;60.92;100521.41;7404117;19;1651;-68
2022/08/31 11:59:25;;;;;;;;;;;;;;;23.82;60.89;100519.53;7403452;19;1780;-69
2022/08/31 12:01:55;;;;;;;;;;;;;;;23.80;60.67;100531.53;7402887;19;1602;-60
2022/08/31 12:04:56;;;;;;;;;;;;;;;23.85;60.81;100506.72;7402060;19;1786;-67
2022/08/31 12:07:30;;;;;;;;;;;;;;;23.91;60.76;100500.59;7402849;19;1624;-59
2022/08/31 12:10:19;;;;;;;;;;;;;;;23.92;60.70;100502.31;7396987;19;2058;-59
2022/08/31 12:12:53;;;;;;;;;;;;;;;23.79;61.15;100500.97;7400126;19;1677;-58
2022/08/31 12:15:27;;;;;;;;;;;;;;;23.84;61.01;100497.78;7401529;19;1399;-70
2022/08/31 12:18:05;;;;;;;;;;;;;;;23.74;61.12;100503.34;7405173;19;1562;-72
2022/08/31 12:23:38;;;;;;;;;;;;;;;23.74;60.97;100481.75;7405954;19;1633;-61
2022/08/31 12:26:16;;;;;;;;;;;;;;;23.75;61.06;100491.50;7402400;19;2076;-63
2022/08/31 12:28:56;;;;;;;;;;;;;;;23.74;60.86;100484.44;7403844;19;1536;-62
2022/08/31 12:31:25;;;;;;;;;;;;;;;23.85;60.87;100474.31;7402578;19;1370;-59
2022/08/31 12:33:58;;;;;;;;;;;;;;;23.82;60.69;100481.75;7402062;19;1447;-67
2022/08/31 12:36:28;;;;;;;;;;;;;;;23.90;60.47;100478.16;7399037;19;1581;-59
2022/08/31 12:39:10;;;;;;;;;;;;;;;23.85;60.35;100483.25;7403372;19;1331;-59
2022/08/31 12:41:44;;;;;;;;;;;;;;;23.79;60.66;100465.88;7402668;19;1312;-67
2022/08/31 12:44:13;;;;;;;;;;;;;;;23.80;60.47;100467.56;7400469;19;1923;-65
2022/08/31 12:46:53;;;;;;;;;;;;;;;23.77;60.77;100451.72;7399355;19;1850;-65
2022/08/31 12:49:36;;;;;;;;;;;;;;;23.80;60.64;100442.44;7402549;19;1405;-64
2022/08/31 12:52:11;;;;;;;;;;;;;;;23.86;60.69;100449.00;7402585;19;1595;-68
2022/08/31 12:54:54;;;;;;;;;;;;;;;23.89;60.45;100448.63;7404182;19;1277;-63
2022/08/31 12:57:38;;;;;;;;;;;;;;;23.86;60.52;100433.63;7402901;19;1356;-67
2022/08/31 13:00:08;;;;;;;;;;;;;;;23.99;60.23;100457.34;7402725;19;1398;-58
2022/08/31 13:02:40;;;;;;;;;;;;;;;23.96;59.91;100428.03;7400857;19;1440;-65
2022/08/31 13:05:16;;;;;;;;;;;;;;;24.04;60.08;100444.19;7401645;19;1848;-65
2022/08/31 13:07:45;;;;;;;;;;;;;;;24.09;60.02;100436.38;7401846;19;1279;-59
2022/08/31 13:10:14;;;;;;;;;;;;;;;24.15;60.14;100443.78;7402009;19;1446;-62
2022/08/31 13:12:52;;;;;;;;;;;;;;;24.22;60.33;100444.75;7401328;19;1450;-59
2022/08/31 13:15:24;;;;;;;;;;;;;;;24.24;59.84;100439.16;7398586;19;1568;-59
2022/08/31 13:17:53;;;;;;;;;;;;;;;24.27;59.85;100446.06;7400793;19;1546;-63
2022/08/31 13:20:23;;;;;;;;;;;;;;;24.20;60.42;100440.56;7401301;19;1499;-67
2022/08/31 13:23:01;;;;;;;;;;;;;;;24.24;60.73;100443.75;7404002;19;1365;-62
2022/08/31 13:25:34;;;;;;;;;;;;;;;24.11;60.90;100439.72;7409131;19;1852;-67
2022/08/31 13:28:06;;;;;;;;;;;;;;;24.12;60.58;100437.91;7407460;19;1327;-70